sensor_id;sensor_type;location;lat;lon;timestamp;pressure;altitude;pressure_sealevel;temperature;humidity
64668;BME280;51077;42.716;23.344;2022-12-29T00:01:48;96301.09;;;8.29;55.09
64668;BME280;51077;42.716;23.344;2022-12-29T00:04:14;96294.38;;;8.30;55.55
64668;BME280;51077;42.716;23.344;2022-12-29T00:06:41;96298.16;;;8.33;55.27
64668;BME280;51077;42.716;23.344;2022-12-29T00:09:06;96292.22;;;8.35;55.31
64668;BME280;51077;42.716;23.344;2022-12-29T00:11:32;96301.50;;;8.37;55.13
64668;BME280;51077;42.716;23.344;2022-12-29T00:13:57;96301.50;;;8.37;55.33
64668;BME280;51077;42.716;23.344;2022-12-29T00:16:43;96301.94;;;8.36;55.49
64668;BME280;51077;42.716;23.344;2022-12-29T00:19:09;96296.66;;;8.32;55.25
64668;BME280;51077;42.716;23.344;2022-12-29T00:21:55;96295.63;;;8.29;55.42
64668;BME280;51077;42.716;23.344;2022-12-29T00:24:39;96297.59;;;8.29;55.48
64668;BME280;51077;42.716;23.344;2022-12-29T00:27:23;96300.03;;;8.27;55.30
64668;BME280;51077;42.716;23.344;2022-12-29T00:30:12;96307.50;;;8.26;55.47
64668;BME280;51077;42.716;23.344;2022-12-29T00:32:56;96315.69;;;8.26;55.31
64668;BME280;51077;42.716;23.344;2022-12-29T00:35:45;96313.72;;;8.27;55.73
64668;BME280;51077;42.716;23.344;2022-12-29T00:38:12;96316.94;;;8.25;55.73
64668;BME280;51077;42.716;23.344;2022-12-29T00:40:56;96318.91;;;8.25;55.35
64668;BME280;51077;42.716;23.344;2022-12-29T00:43:40;96315.13;;;8.22;55.76
64668;BME280;51077;42.716;23.344;2022-12-29T00:46:24;96327.59;;;8.23;55.67
64668;BME280;51077;42.716;23.344;2022-12-29T00:48:50;96320.16;;;8.24;55.45
64668;BME280;51077;42.716;23.344;2022-12-29T00:51:34;96315.91;;;8.23;55.61
64668;BME280;51077;42.716;23.344;2022-12-29T00:53:59;96321.81;;;8.21;55.57
64668;BME280;51077;42.716;23.344;2022-12-29T00:56:25;96324.56;;;8.21;55.55
64668;BME280;51077;42.716;23.344;2022-12-29T00:58:50;96317.09;;;8.22;55.36
64668;BME280;51077;42.716;23.344;2022-12-29T01:01:16;96315.59;;;8.21;55.55
64668;BME280;51077;42.716;23.344;2022-12-29T01:03:41;96330.03;;;8.21;55.88
64668;BME280;51077;42.716;23.344;2022-12-29T01:06:08;96321.38;;;8.23;55.36
64668;BME280;51077;42.716;23.344;2022-12-29T01:08:34;96324.56;;;8.21;55.70
64668;BME280;51077;42.716;23.344;2022-12-29T01:11:09;96325.31;;;8.22;55.49
64668;BME280;51077;42.716;23.344;2022-12-29T01:13:35;96313.16;;;8.23;55.36
64668;BME280;51077;42.716;23.344;2022-12-29T01:16:01;96308.16;;;8.21;55.75
64668;BME280;51077;42.716;23.344;2022-12-29T01:18:27;96306.66;;;8.20;55.66
64668;BME280;51077;42.716;23.344;2022-12-29T01:21:04;96302.41;;;8.19;55.80
64668;BME280;51077;42.716;23.344;2022-12-29T01:23:30;96311.81;;;8.18;55.88
64668;BME280;51077;42.716;23.344;2022-12-29T01:25:56;96307.13;;;8.19;55.82
64668;BME280;51077;42.716;23.344;2022-12-29T01:28:22;96308.16;;;8.21;55.73
64668;BME280;51077;42.716;23.344;2022-12-29T01:30:47;96301.44;;;8.22;55.50
64668;BME280;51077;42.716;23.344;2022-12-29T01:33:13;96299.50;;;8.23;55.65
64668;BME280;51077;42.716;23.344;2022-12-29T01:35:39;96296.75;;;8.23;55.66
64668;BME280;51077;42.716;23.344;2022-12-29T01:38:04;96298.72;;;8.22;55.34
64668;BME280;51077;42.716;23.344;2022-12-29T01:40:30;96280.81;;;8.21;55.82
64668;BME280;51077;42.716;23.344;2022-12-29T01:42:55;96291.75;;;8.21;55.85
64668;BME280;51077;42.716;23.344;2022-12-29T01:45:21;96294.22;;;8.19;55.45
64668;BME280;51077;42.716;23.344;2022-12-29T01:47:59;96292.69;;;8.18;55.57
64668;BME280;51077;42.716;23.344;2022-12-29T01:50:37;96280.72;;;8.16;55.71
64668;BME280;51077;42.716;23.344;2022-12-29T01:55:34;96276.66;;;8.11;55.89
64668;BME280;51077;42.716;23.344;2022-12-29T01:58:03;96277.59;;;8.08;55.58
64668;BME280;51077;42.716;23.344;2022-12-29T02:00:30;96276.56;;;8.05;55.76
64668;BME280;51077;42.716;23.344;2022-12-29T02:02:55;96273.53;;;8.03;55.98
64668;BME280;51077;42.716;23.344;2022-12-29T02:07:59;96268.56;;;8.02;55.78
64668;BME280;51077;42.716;23.344;2022-12-29T02:10:27;96270.22;;;7.99;56.08
64668;BME280;51077;42.716;23.344;2022-12-29T02:12:55;96268.72;;;7.98;55.86
64668;BME280;51077;42.716;23.344;2022-12-29T02:15:37;96272.69;;;7.97;55.67
64668;BME280;51077;42.716;23.344;2022-12-29T02:39:50;96270.50;;;7.87;55.49
64668;BME280;51077;42.716;23.344;2022-12-29T02:42:33;96273.72;;;7.85;55.85
64668;BME280;51077;42.716;23.344;2022-12-29T02:50:06;96276.13;;;7.83;55.29
64668;BME280;51077;42.716;23.344;2022-12-29T02:52:57;96267.19;;;7.82;55.57
64668;BME280;51077;42.716;23.344;2022-12-29T02:55:23;96258.53;;;7.84;55.12
64668;BME280;51077;42.716;23.344;2022-12-29T02:58:08;96257.59;;;7.87;55.35
64668;BME280;51077;42.716;23.344;2022-12-29T03:00:52;96254.84;;;7.87;55.23
64668;BME280;51077;42.716;23.344;2022-12-29T03:15:50;96243.56;;;7.94;55.21
64668;BME280;51077;42.716;23.344;2022-12-29T03:19:10;96249.28;;;7.96;54.88
64668;BME280;51077;42.716;23.344;2022-12-29T03:24:53;96242.31;;;7.95;54.98
64668;BME280;51077;42.716;23.344;2022-12-29T03:27:23;96242.31;;;7.95;55.05
64668;BME280;51077;42.716;23.344;2022-12-29T03:29:53;96244.78;;;7.93;54.83
64668;BME280;51077;42.716;23.344;2022-12-29T03:32:24;96247.22;;;7.91;54.75
64668;BME280;51077;42.716;23.344;2022-12-29T03:34:52;96251.38;;;7.87;54.98
64668;BME280;51077;42.716;23.344;2022-12-29T03:37:23;96254.47;;;7.79;55.34
64668;BME280;51077;42.716;23.344;2022-12-29T03:39:49;96255.91;;;7.75;55.37
64668;BME280;51077;42.716;23.344;2022-12-29T03:42:17;96241.34;;;7.69;55.27
64668;BME280;51077;42.716;23.344;2022-12-29T03:44:44;96255.94;;;7.66;55.45
64668;BME280;51077;42.716;23.344;2022-12-29T03:47:11;96254.63;;;7.61;55.73
64668;BME280;51077;42.716;23.344;2022-12-29T03:49:37;96262.72;;;7.55;55.67
64668;BME280;51077;42.716;23.344;2022-12-29T03:52:03;96269.56;;;7.51;56.14
64668;BME280;51077;42.716;23.344;2022-12-29T03:54:29;96265.03;;;7.48;55.82
64668;BME280;51077;42.716;23.344;2022-12-29T03:56:55;96265.22;;;7.44;55.83
64668;BME280;51077;42.716;23.344;2022-12-29T03:59:20;96276.78;;;7.39;56.09
64668;BME280;51077;42.716;23.344;2022-12-29T04:01:46;96264.84;;;7.37;56.11
64668;BME280;51077;42.716;23.344;2022-12-29T04:04:11;96275.19;;;7.33;56.44
64668;BME280;51077;42.716;23.344;2022-12-29T04:06:37;96276.09;;;7.29;56.19
64668;BME280;51077;42.716;23.344;2022-12-29T04:09:02;96268.06;;;7.26;56.43
64668;BME280;51077;42.716;23.344;2022-12-29T04:11:28;96270.53;;;7.24;56.60
64668;BME280;51077;42.716;23.344;2022-12-29T04:13:53;96266.28;;;7.23;56.51
64668;BME280;51077;42.716;23.344;2022-12-29T04:16:18;96269.47;;;7.21;56.09
64668;BME280;51077;42.716;23.344;2022-12-29T04:18:44;96267.50;;;7.22;56.37
64668;BME280;51077;42.716;23.344;2022-12-29T04:21:09;96266.47;;;7.19;56.34
64668;BME280;51077;42.716;23.344;2022-12-29T04:23:38;96269.63;;;7.18;56.64
64668;BME280;51077;42.716;23.344;2022-12-29T04:26:05;96272.84;;;7.16;56.65
64668;BME280;51077;42.716;23.344;2022-12-29T04:28:33;96271.34;;;7.15;56.59
64668;BME280;51077;42.716;23.344;2022-12-29T04:30:58;96277.25;;;7.14;57.16
64668;BME280;51077;42.716;23.344;2022-12-29T04:33:24;96279.22;;;7.13;56.92
64668;BME280;51077;42.716;23.344;2022-12-29T04:35:49;96280.44;;;7.12;56.78
64668;BME280;51077;42.716;23.344;2022-12-29T04:38:15;96285.63;;;7.10;56.81
64668;BME280;51077;42.716;23.344;2022-12-29T04:40:42;96284.56;;;7.08;56.97
64668;BME280;51077;42.716;23.344;2022-12-29T04:43:08;96288.53;;;7.07;57.18
64668;BME280;51077;42.716;23.344;2022-12-29T04:45:33;96290.94;;;7.04;57.16
64668;BME280;51077;42.716;23.344;2022-12-29T04:47:59;96292.94;;;7.04;57.08
64668;BME280;51077;42.716;23.344;2022-12-29T04:50:24;96299.13;;;7.04;56.68
64668;BME280;51077;42.716;23.344;2022-12-29T04:52:50;96300.38;;;7.03;57.08
64668;BME280;51077;42.716;23.344;2022-12-29T04:55:15;96303.09;;;7.03;57.09
64668;BME280;51077;42.716;23.344;2022-12-29T04:57:41;96303.09;;;7.03;57.09
64668;BME280;51077;42.716;23.344;2022-12-29T05:00:06;96312.50;;;7.02;56.65
64668;BME280;51077;42.716;23.344;2022-12-29T05:02:34;96302.34;;;7.03;57.17
64668;BME280;51077;42.716;23.344;2022-12-29T05:04:59;96295.38;;;7.02;56.77
64668;BME280;51077;42.716;23.344;2022-12-29T05:07:25;96303.56;;;7.02;56.88
64668;BME280;51077;42.716;23.344;2022-12-29T05:09:50;96305.06;;;7.03;57.04
64668;BME280;51077;42.716;23.344;2022-12-29T05:12:15;96304.59;;;7.04;56.49
64668;BME280;51077;42.716;23.344;2022-12-29T05:14:41;96306.56;;;7.04;56.85
64668;BME280;51077;42.716;23.344;2022-12-29T05:20:29;96305.66;;;7.07;56.71
64668;BME280;51077;42.716;23.344;2022-12-29T05:22:54;96302.44;;;7.09;56.64
64668;BME280;51077;42.716;23.344;2022-12-29T05:25:19;96306.25;;;7.11;56.65
64668;BME280;51077;42.716;23.344;2022-12-29T05:27:45;96301.81;;;7.14;56.60
64668;BME280;51077;42.716;23.344;2022-12-29T05:30:11;96304.84;;;7.16;56.55
64668;BME280;51077;42.716;23.344;2022-12-29T05:32:36;96307.09;;;7.17;56.61
64668;BME280;51077;42.716;23.344;2022-12-29T05:35:02;96300.25;;;7.22;56.32
64668;BME280;51077;42.716;23.344;2022-12-29T05:37:27;96312.72;;;7.23;56.76
64668;BME280;51077;42.716;23.344;2022-12-29T05:39:52;96314.50;;;7.26;56.60
64668;BME280;51077;42.716;23.344;2022-12-29T05:42:18;96308.13;;;7.29;56.23
64668;BME280;51077;42.716;23.344;2022-12-29T05:44:43;96308.38;;;7.31;56.53
64668;BME280;51077;42.716;23.344;2022-12-29T05:47:09;96314.16;;;7.33;56.46
64668;BME280;51077;42.716;23.344;2022-12-29T05:49:34;96310.50;;;7.36;56.04
64668;BME280;51077;42.716;23.344;2022-12-29T05:55:08;96314.84;;;7.43;55.83
64668;BME280;51077;42.716;23.344;2022-12-29T05:57:34;96314.84;;;7.43;56.03
64668;BME280;51077;42.716;23.344;2022-12-29T05:59:59;96326.84;;;7.45;56.05
64668;BME280;51077;42.716;23.344;2022-12-29T06:02:25;96319.66;;;7.48;55.92
64668;BME280;51077;42.716;23.344;2022-12-29T06:04:50;96324.69;;;7.49;55.55
64668;BME280;51077;42.716;23.344;2022-12-29T06:07:16;96329.66;;;7.51;55.79
64668;BME280;51077;42.716;23.344;2022-12-29T06:09:41;96327.03;;;7.56;55.64
64668;BME280;51077;42.716;23.344;2022-12-29T06:12:06;96332.91;;;7.64;55.35
64668;BME280;51077;42.716;23.344;2022-12-29T06:14:32;96330.28;;;7.70;55.24
64668;BME280;51077;42.716;23.344;2022-12-29T06:16:57;96330.69;;;7.77;55.52
64668;BME280;51077;42.716;23.344;2022-12-29T06:19:22;96326.88;;;7.84;55.02
64668;BME280;51077;42.716;23.344;2022-12-29T06:21:48;96329.97;;;7.92;55.17
64668;BME280;51077;42.716;23.344;2022-12-29T06:24:14;96327.63;;;7.99;54.80
64668;BME280;51077;42.716;23.344;2022-12-29T06:26:39;96329.72;;;8.04;54.38
64668;BME280;51077;42.716;23.344;2022-12-29T06:29:05;96335.75;;;8.09;54.54
64668;BME280;51077;42.716;23.344;2022-12-29T06:31:32;96330.59;;;8.11;54.13
64668;BME280;51077;42.716;23.344;2022-12-29T06:33:57;96335.09;;;8.14;54.19
64668;BME280;51077;42.716;23.344;2022-12-29T06:36:23;96338.91;;;8.16;54.05
64668;BME280;51077;42.716;23.344;2022-12-29T06:38:48;96341.16;;;8.18;54.15
64668;BME280;51077;42.716;23.344;2022-12-29T06:41:14;96339.47;;;8.20;54.13
64668;BME280;51077;42.716;23.344;2022-12-29T06:43:39;96336.25;;;8.22;54.30
64668;BME280;51077;42.716;23.344;2022-12-29T06:46:05;96340.03;;;8.24;54.22
64668;BME280;51077;42.716;23.344;2022-12-29T06:48:30;96345.34;;;8.28;54.22
64668;BME280;51077;42.716;23.344;2022-12-29T06:50:55;96342.16;;;8.44;54.04
64668;BME280;51077;42.716;23.344;2022-12-29T06:53:21;96345.72;;;8.65;53.76
64668;BME280;51077;42.716;23.344;2022-12-29T06:55:46;96341.66;;;8.90;52.97
64668;BME280;51077;42.716;23.344;2022-12-29T06:58:12;96340.88;;;9.19;52.47
64668;BME280;51077;42.716;23.344;2022-12-29T07:00:37;96344.28;;;9.49;51.82
64668;BME280;51077;42.716;23.344;2022-12-29T07:03:02;96338.94;;;9.81;51.43
64668;BME280;51077;42.716;23.344;2022-12-29T07:05:28;96350.75;;;10.13;50.84
64668;BME280;51077;42.716;23.344;2022-12-29T07:07:54;96352.03;;;10.38;50.19
64668;BME280;51077;42.716;23.344;2022-12-29T07:10:20;96352.97;;;10.55;50.03
64668;BME280;51077;42.716;23.344;2022-12-29T07:12:46;96351.38;;;10.75;49.31
64668;BME280;51077;42.716;23.344;2022-12-29T07:15:11;96348.38;;;11.04;48.93
64668;BME280;51077;42.716;23.344;2022-12-29T07:17:37;96345.31;;;11.34;48.44
64668;BME280;51077;42.716;23.344;2022-12-29T07:20:03;96350.00;;;11.71;47.87
64668;BME280;51077;42.716;23.344;2022-12-29T07:22:29;96347.97;;;12.08;47.02
64668;BME280;51077;42.716;23.344;2022-12-29T07:24:54;96351.81;;;12.50;46.46
64668;BME280;51077;42.716;23.344;2022-12-29T07:27:19;96338.31;;;12.92;45.60
64668;BME280;51077;42.716;23.344;2022-12-29T07:29:45;96345.06;;;13.36;44.66
64668;BME280;51077;42.716;23.344;2022-12-29T07:32:10;96339.19;;;13.78;43.98
64668;BME280;51077;42.716;23.344;2022-12-29T07:34:36;96341.28;;;14.25;43.01
64668;BME280;51077;42.716;23.344;2022-12-29T07:37:01;96348.78;;;14.71;42.18
64668;BME280;51077;42.716;23.344;2022-12-29T07:39:26;96347.19;;;15.17;41.37
64668;BME280;51077;42.716;23.344;2022-12-29T07:41:52;96343.22;;;15.62;40.66
64668;BME280;51077;42.716;23.344;2022-12-29T07:44:17;96353.53;;;16.10;40.10
64668;BME280;51077;42.716;23.344;2022-12-29T07:46:43;96349.44;;;16.54;39.27
64668;BME280;51077;42.716;23.344;2022-12-29T07:49:08;96355.06;;;17.00;38.79
64668;BME280;51077;42.716;23.344;2022-12-29T07:51:33;96358.91;;;17.42;37.95
64668;BME280;51077;42.716;23.344;2022-12-29T07:53:59;96355.88;;;17.86;37.09
64668;BME280;51077;42.716;23.344;2022-12-29T07:56:26;96354.44;;;18.32;36.53
64668;BME280;51077;42.716;23.344;2022-12-29T07:58:51;96351.78;;;18.74;36.29
64668;BME280;51077;42.716;23.344;2022-12-29T08:01:17;96350.72;;;19.19;35.28
64668;BME280;51077;42.716;23.344;2022-12-29T08:03:42;96356.28;;;19.61;34.63
64668;BME280;51077;42.716;23.344;2022-12-29T08:06:11;96363.22;;;20.03;34.13
64668;BME280;51077;42.716;23.344;2022-12-29T08:08:37;96356.53;;;20.43;33.43
64668;BME280;51077;42.716;23.344;2022-12-29T08:11:03;96354.63;;;20.81;32.96
64668;BME280;51077;42.716;23.344;2022-12-29T08:13:29;96369.03;;;21.16;32.53
64668;BME280;51077;42.716;23.344;2022-12-29T08:15:54;96361.59;;;21.42;32.18
64668;BME280;51077;42.716;23.344;2022-12-29T08:18:20;96357.31;;;21.41;31.81
64668;BME280;51077;42.716;23.344;2022-12-29T08:20:45;96355.06;;;21.54;31.58
64668;BME280;51077;42.716;23.344;2022-12-29T08:23:11;96349.28;;;21.68;31.30
64668;BME280;51077;42.716;23.344;2022-12-29T08:25:36;96344.22;;;21.97;31.24
64668;BME280;51077;42.716;23.344;2022-12-29T08:28:01;96347.16;;;22.22;31.22
64668;BME280;51077;42.716;23.344;2022-12-29T08:30:27;96347.78;;;22.53;30.85
64668;BME280;51077;42.716;23.344;2022-12-29T08:32:52;96349.28;;;22.87;30.36
64668;BME280;51077;42.716;23.344;2022-12-29T08:35:18;96346.66;;;23.21;29.80
64668;BME280;51077;42.716;23.344;2022-12-29T08:37:43;96343.34;;;23.57;29.60
64668;BME280;51077;42.716;23.344;2022-12-29T08:40:09;96344.91;;;23.93;29.26
64668;BME280;51077;42.716;23.344;2022-12-29T08:42:34;96349.03;;;24.27;28.73
64668;BME280;51077;42.716;23.344;2022-12-29T08:45:00;96351.09;;;24.61;28.48
64668;BME280;51077;42.716;23.344;2022-12-29T08:47:26;96343.13;;;24.94;28.01
64668;BME280;51077;42.716;23.344;2022-12-29T08:49:51;96349.97;;;25.28;28.00
64668;BME280;51077;42.716;23.344;2022-12-29T08:52:17;96342.38;;;25.57;27.72
64668;BME280;51077;42.716;23.344;2022-12-29T08:54:42;96341.28;;;25.90;27.40
64668;BME280;51077;42.716;23.344;2022-12-29T08:57:07;96333.00;;;26.21;26.72
64668;BME280;51077;42.716;23.344;2022-12-29T08:59:33;96340.28;;;26.53;26.41
64668;BME280;51077;42.716;23.344;2022-12-29T09:01:58;96328.34;;;26.84;26.00
64668;BME280;51077;42.716;23.344;2022-12-29T09:04:24;96330.97;;;27.01;25.97
64668;BME280;51077;42.716;23.344;2022-12-29T09:06:49;96333.94;;;27.13;25.58
64668;BME280;51077;42.716;23.344;2022-12-29T09:09:15;96331.81;;;27.23;25.41
64668;BME280;51077;42.716;23.344;2022-12-29T09:11:41;96324.13;;;27.45;25.24
64668;BME280;51077;42.716;23.344;2022-12-29T09:14:07;96316.16;;;27.63;25.17
64668;BME280;51077;42.716;23.344;2022-12-29T09:16:33;96312.03;;;27.85;25.17
64668;BME280;51077;42.716;23.344;2022-12-29T09:18:59;96315.31;;;28.03;24.72
64668;BME280;51077;42.716;23.344;2022-12-29T09:21:24;96313.63;;;28.10;24.67
64668;BME280;51077;42.716;23.344;2022-12-29T09:23:50;96314.03;;;28.16;24.50
64668;BME280;51077;42.716;23.344;2022-12-29T09:26:15;96313.63;;;28.10;24.71
64668;BME280;51077;42.716;23.344;2022-12-29T09:28:41;96308.94;;;28.02;24.35
64668;BME280;51077;42.716;23.344;2022-12-29T09:31:07;96310.38;;;27.92;24.72
64668;BME280;51077;42.716;23.344;2022-12-29T09:33:34;96310.03;;;27.76;25.05
64668;BME280;51077;42.716;23.344;2022-12-29T09:35:59;96299.78;;;27.71;24.97
64668;BME280;51077;42.716;23.344;2022-12-29T09:38:26;96302.97;;;27.55;25.31
64668;BME280;51077;42.716;23.344;2022-12-29T09:40:54;96291.31;;;27.49;25.12
64668;BME280;51077;42.716;23.344;2022-12-29T09:48:33;96291.47;;;27.94;24.81
64668;BME280;51077;42.716;23.344;2022-12-29T09:51:03;96289.16;;;28.24;24.69
64668;BME280;51077;42.716;23.344;2022-12-29T09:53:38;96289.28;;;28.59;24.21
64668;BME280;51077;42.716;23.344;2022-12-29T09:56:05;96265.88;;;28.92;24.08
64668;BME280;51077;42.716;23.344;2022-12-29T09:58:39;96271.19;;;29.21;23.59
64668;BME280;51077;42.716;23.344;2022-12-29T10:01:38;96271.94;;;29.57;23.23
64668;BME280;51077;42.716;23.344;2022-12-29T10:04:06;96269.38;;;29.86;22.90
64668;BME280;51077;42.716;23.344;2022-12-29T10:06:56;96267.84;;;30.09;22.66
64668;BME280;51077;42.716;23.344;2022-12-29T10:12:08;96262.75;;;30.44;22.47
64668;BME280;51077;42.716;23.344;2022-12-29T10:25:19;96247.50;;;31.58;21.24
64668;BME280;51077;42.716;23.344;2022-12-29T10:27:49;96244.94;;;31.77;21.11
64668;BME280;51077;42.716;23.344;2022-12-29T10:30:16;96241.28;;;31.89;20.89
64668;BME280;51077;42.716;23.344;2022-12-29T10:32:51;96236.28;;;32.03;20.54
64668;BME280;51077;42.716;23.344;2022-12-29T10:35:22;96235.81;;;32.22;20.80
64668;BME280;51077;42.716;23.344;2022-12-29T10:40:36;96231.50;;;32.67;20.12
64668;BME280;51077;42.716;23.344;2022-12-29T10:43:20;96229.66;;;32.89;19.84
64668;BME280;51077;42.716;23.344;2022-12-29T10:45:48;96217.00;;;33.08;20.07
64668;BME280;51077;42.716;23.344;2022-12-29T10:48:22;96215.72;;;33.27;19.67
64668;BME280;51077;42.716;23.344;2022-12-29T10:50:50;96213.38;;;33.39;19.63
64668;BME280;51077;42.716;23.344;2022-12-29T10:53:25;96211.25;;;33.56;19.57
64668;BME280;51077;42.716;23.344;2022-12-29T10:55:52;96200.94;;;33.64;19.56
64668;BME280;51077;42.716;23.344;2022-12-29T10:58:19;96202.94;;;33.44;19.42
64668;BME280;51077;42.716;23.344;2022-12-29T11:00:51;96198.22;;;33.50;19.64
64668;BME280;51077;42.716;23.344;2022-12-29T11:11:27;96184.00;;;33.35;19.56
64668;BME280;51077;42.716;23.344;2022-12-29T11:14:11;96181.16;;;33.35;19.12
64668;BME280;51077;42.716;23.344;2022-12-29T11:16:38;96179.06;;;33.35;19.60
64668;BME280;51077;42.716;23.344;2022-12-29T11:19:04;96178.50;;;33.39;19.27
64668;BME280;51077;42.716;23.344;2022-12-29T11:24:01;96183.81;;;33.46;19.33
64668;BME280;51077;42.716;23.344;2022-12-29T11:26:29;96176.84;;;33.49;19.27
64668;BME280;51077;42.716;23.344;2022-12-29T11:31:53;96173.03;;;33.61;19.43
64668;BME280;51077;42.716;23.344;2022-12-29T11:36:52;96170.44;;;33.67;19.22
64668;BME280;51077;42.716;23.344;2022-12-29T11:39:37;96167.09;;;33.72;19.20
64668;BME280;51077;42.716;23.344;2022-12-29T11:42:06;96166.38;;;33.72;19.22
64668;BME280;51077;42.716;23.344;2022-12-29T11:44:45;96160.44;;;33.66;19.19
64668;BME280;51077;42.716;23.344;2022-12-29T11:47:26;96163.19;;;33.64;19.07
64668;BME280;51077;42.716;23.344;2022-12-29T11:49:54;96161.78;;;33.47;19.27
64668;BME280;51077;42.716;23.344;2022-12-29T11:52:22;96166.31;;;33.36;19.43
64668;BME280;51077;42.716;23.344;2022-12-29T11:54:49;96160.69;;;33.38;19.50
64668;BME280;51077;42.716;23.344;2022-12-29T11:57:16;96163.38;;;33.34;19.33
64668;BME280;51077;42.716;23.344;2022-12-29T11:59:49;96154.81;;;33.34;19.42
64668;BME280;51077;42.716;23.344;2022-12-29T12:04:51;96146.19;;;33.14;19.79
64668;BME280;51077;42.716;23.344;2022-12-29T12:07:24;96143.00;;;32.74;20.13
64668;BME280;51077;42.716;23.344;2022-12-29T12:09:58;96146.63;;;32.29;20.12
64668;BME280;51077;42.716;23.344;2022-12-29T12:12:54;96144.38;;;31.67;20.81
64668;BME280;51077;42.716;23.344;2022-12-29T12:15:34;96143.19;;;31.15;20.80
64668;BME280;51077;42.716;23.344;2022-12-29T12:18:08;96144.97;;;30.67;21.77
64668;BME280;51077;42.716;23.344;2022-12-29T12:20:45;96134.50;;;30.16;21.81
64668;BME280;51077;42.716;23.344;2022-12-29T12:25:40;96137.66;;;29.34;22.72
64668;BME280;51077;42.716;23.344;2022-12-29T12:28:21;96136.13;;;28.84;23.11
64668;BME280;51077;42.716;23.344;2022-12-29T12:30:55;96124.25;;;28.39;23.64
64668;BME280;51077;42.716;23.344;2022-12-29T12:36:17;96125.47;;;27.58;24.25
64668;BME280;51077;42.716;23.344;2022-12-29T12:44:41;96121.72;;;26.38;25.53
64668;BME280;51077;42.716;23.344;2022-12-29T12:58:32;96123.94;;;24.82;26.88
64668;BME280;51077;42.716;23.344;2022-12-29T13:09:24;96115.25;;;23.88;28.08
64668;BME280;51077;42.716;23.344;2022-12-29T13:20:35;96111.13;;;23.27;28.71
64668;BME280;51077;42.716;23.344;2022-12-29T13:23:25;96124.97;;;23.25;28.70
64668;BME280;51077;42.716;23.344;2022-12-29T13:26:17;96117.81;;;23.31;28.48
64668;BME280;51077;42.716;23.344;2022-12-29T13:31:50;96121.59;;;23.09;28.66
64668;BME280;51077;42.716;23.344;2022-12-29T13:34:27;96122.16;;;22.90;29.13
64668;BME280;51077;42.716;23.344;2022-12-29T13:36:58;96123.06;;;22.68;29.19
64668;BME280;51077;42.716;23.344;2022-12-29T13:39:30;96119.00;;;22.44;29.39
64668;BME280;51077;42.716;23.344;2022-12-29T13:41:58;96126.47;;;22.16;29.97
64668;BME280;51077;42.716;23.344;2022-12-29T13:44:27;96126.41;;;21.91;29.90
64668;BME280;51077;42.716;23.344;2022-12-29T13:46:56;96124.28;;;21.67;30.20
64668;BME280;51077;42.716;23.344;2022-12-29T13:49:24;96126.25;;;21.41;30.95
64668;BME280;51077;42.716;23.344;2022-12-29T13:52:04;96131.91;;;21.18;31.08
64668;BME280;51077;42.716;23.344;2022-12-29T13:54:57;96134.38;;;20.91;31.74
64668;BME280;51077;42.716;23.344;2022-12-29T13:57:35;96133.66;;;20.68;31.92
64668;BME280;51077;42.716;23.344;2022-12-29T14:00:19;96128.78;;;20.45;31.94
64668;BME280;51077;42.716;23.344;2022-12-29T14:07:45;96126.13;;;19.86;32.79
64668;BME280;51077;42.716;23.344;2022-12-29T14:10:45;96136.69;;;19.72;33.00
64668;BME280;51077;42.716;23.344;2022-12-29T14:13:25;96134.91;;;19.54;33.14
64668;BME280;51077;42.716;23.344;2022-12-29T14:15:55;96144.13;;;19.41;33.34
64668;BME280;51077;42.716;23.344;2022-12-29T14:18:29;96138.69;;;19.28;33.55
64668;BME280;51077;42.716;23.344;2022-12-29T14:21:04;96140.84;;;19.14;33.86
64668;BME280;51077;42.716;23.344;2022-12-29T14:28:50;96152.19;;;18.67;34.36
64668;BME280;51077;42.716;23.344;2022-12-29T14:36:39;96146.13;;;18.26;35.15
64668;BME280;51077;42.716;23.344;2022-12-29T14:39:57;96139.69;;;18.11;35.35
64668;BME280;51077;42.716;23.344;2022-12-29T14:42:19;96147.53;;;17.99;35.42
64668;BME280;51077;42.716;23.344;2022-12-29T14:47:32;96142.56;;;17.71;35.84
64668;BME280;51077;42.716;23.344;2022-12-29T14:52:58;96154.63;;;17.39;36.37
64668;BME280;51077;42.716;23.344;2022-12-29T14:55:43;96154.41;;;17.24;36.57
64668;BME280;51077;42.716;23.344;2022-12-29T15:04:20;96149.53;;;16.77;37.27
64668;BME280;51077;42.716;23.344;2022-12-29T15:06:49;96155.75;;;16.64;37.56
64668;BME280;51077;42.716;23.344;2022-12-29T15:14:47;96146.53;;;16.29;38.01
64668;BME280;51077;42.716;23.344;2022-12-29T15:19:47;96148.06;;;16.12;38.44
64668;BME280;51077;42.716;23.344;2022-12-29T15:22:14;96142.94;;;16.02;38.35
64668;BME280;51077;42.716;23.344;2022-12-29T15:24:43;96152.06;;;15.97;38.51
64668;BME280;51077;42.716;23.344;2022-12-29T15:27:17;96155.44;;;15.90;38.72
64668;BME280;51077;42.716;23.344;2022-12-29T15:29:45;96151.78;;;15.82;39.00
64668;BME280;51077;42.716;23.344;2022-12-29T15:32:22;96146.34;;;15.76;39.01
64668;BME280;51077;42.716;23.344;2022-12-29T15:34:52;96155.22;;;15.69;39.11
64668;BME280;51077;42.716;23.344;2022-12-29T15:37:26;96153.56;;;15.61;39.28
64668;BME280;51077;42.716;23.344;2022-12-29T15:39:53;96147.66;;;15.51;39.44
64668;BME280;51077;42.716;23.344;2022-12-29T15:44:47;96150.84;;;15.36;39.63
64668;BME280;51077;42.716;23.344;2022-12-29T15:47:16;96152.97;;;15.30;39.82
64668;BME280;51077;42.716;23.344;2022-12-29T15:49:52;96140.25;;;15.21;39.91
64668;BME280;51077;42.716;23.344;2022-12-29T15:52:23;96147.88;;;15.15;40.10
64668;BME280;51077;42.716;23.344;2022-12-29T15:54:51;96152.47;;;15.07;40.22
64668;BME280;51077;42.716;23.344;2022-12-29T15:57:23;96155.06;;;14.99;40.36
64668;BME280;51077;42.716;23.344;2022-12-29T15:59:49;96159.16;;;14.93;40.51
64668;BME280;51077;42.716;23.344;2022-12-29T16:02:15;96157.00;;;14.86;40.50